sensor_id;sensor_type;location;lat;lon;timestamp;P1;durP1;ratioP1;P2;durP2;ratioP2
59314;SDS011;46521;50.160;20.802;2023-08-20T00:32:02;13.05;;;8.55;;
59314;SDS011;46521;50.160;20.802;2023-08-20T01:45:17;12.00;;;8.57;;
59314;SDS011;46521;50.160;20.802;2023-08-20T01:55:19;13.17;;;8.30;;
59314;SDS011;46521;50.160;20.802;2023-08-20T02:05:21;11.33;;;8.57;;
59314;SDS011;46521;50.160;20.802;2023-08-20T02:15:23;11.65;;;8.80;;
59314;SDS011;46521;50.160;20.802;2023-08-20T02:25:24;11.08;;;8.65;;
59314;SDS011;46521;50.160;20.802;2023-08-20T04:32:10;13.38;;;10.18;;
59314;SDS011;46521;50.160;20.802;2023-08-20T05:24:26;14.65;;;12.80;;
59314;SDS011;46521;50.160;20.802;2023-08-20T05:34:28;15.03;;;12.75;;
59314;SDS011;46521;50.160;20.802;2023-08-20T05:44:30;16.43;;;14.50;;
59314;SDS011;46521;50.160;20.802;2023-08-20T05:54:32;18.95;;;13.65;;
59314;SDS011;46521;50.160;20.802;2023-08-20T06:04:33;14.73;;;13.13;;
59314;SDS011;46521;50.160;20.802;2023-08-20T06:14:34;14.25;;;12.75;;
59314;SDS011;46521;50.160;20.802;2023-08-20T06:24:36;15.97;;;13.50;;
59314;SDS011;46521;50.160;20.802;2023-08-20T06:34:38;15.10;;;13.55;;
59314;SDS011;46521;50.160;20.802;2023-08-20T06:44:40;14.80;;;13.20;;
59314;SDS011;46521;50.160;20.802;2023-08-20T06:54:41;14.80;;;13.10;;
59314;SDS011;46521;50.160;20.802;2023-08-20T07:04:42;14.75;;;13.00;;
59314;SDS011;46521;50.160;20.802;2023-08-20T07:14:44;13.43;;;12.03;;
59314;SDS011;46521;50.160;20.802;2023-08-20T07:24:45;13.73;;;12.18;;
59314;SDS011;46521;50.160;20.802;2023-08-20T07:34:49;14.53;;;13.03;;
59314;SDS011;46521;50.160;20.802;2023-08-20T07:44:51;15.03;;;13.37;;
59314;SDS011;46521;50.160;20.802;2023-08-20T07:54:52;14.78;;;13.30;;
59314;SDS011;46521;50.160;20.802;2023-08-20T08:04:54;16.15;;;13.50;;
59314;SDS011;46521;50.160;20.802;2023-08-20T08:14:55;14.60;;;13.10;;
59314;SDS011;46521;50.160;20.802;2023-08-20T08:24:56;15.20;;;13.70;;
59314;SDS011;46521;50.160;20.802;2023-08-20T08:34:58;14.80;;;12.70;;
59314;SDS011;46521;50.160;20.802;2023-08-20T08:44:59;14.90;;;13.20;;
59314;SDS011;46521;50.160;20.802;2023-08-20T08:55:01;14.10;;;12.70;;
59314;SDS011;46521;50.160;20.802;2023-08-20T09:05:05;14.68;;;13.18;;
59314;SDS011;46521;50.160;20.802;2023-08-20T09:15:11;13.60;;;12.07;;
59314;SDS011;46521;50.160;20.802;2023-08-20T09:25:15;14.70;;;13.20;;
59314;SDS011;46521;50.160;20.802;2023-08-20T09:35:18;13.55;;;12.15;;
59314;SDS011;46521;50.160;20.802;2023-08-20T09:45:20;13.83;;;12.45;;
59314;SDS011;46521;50.160;20.802;2023-08-20T09:55:22;12.70;;;11.05;;
59314;SDS011;46521;50.160;20.802;2023-08-20T10:05:26;11.97;;;10.77;;
59314;SDS011;46521;50.160;20.802;2023-08-20T10:15:28;12.43;;;11.13;;
59314;SDS011;46521;50.160;20.802;2023-08-20T10:25:32;12.33;;;11.03;;
59314;SDS011;46521;50.160;20.802;2023-08-20T10:45:44;10.90;;;9.80;;
59314;SDS011;46521;50.160;20.802;2023-08-20T10:55:48;12.23;;;9.90;;
59314;SDS011;46521;50.160;20.802;2023-08-20T11:05:50;12.05;;;9.50;;
59314;SDS011;46521;50.160;20.802;2023-08-20T11:15:52;11.58;;;9.43;;
59314;SDS011;46521;50.160;20.802;2023-08-20T11:25:53;11.53;;;10.17;;
59314;SDS011;46521;50.160;20.802;2023-08-20T11:35:55;12.37;;;10.33;;
59314;SDS011;46521;50.160;20.802;2023-08-20T11:45:57;12.43;;;11.13;;
59314;SDS011;46521;50.160;20.802;2023-08-20T11:55:59;13.15;;;11.30;;
59314;SDS011;46521;50.160;20.802;2023-08-20T12:06:15;13.00;;;11.70;;
59314;SDS011;46521;50.160;20.802;2023-08-20T12:16:29;13.30;;;11.90;;
59314;SDS011;46521;50.160;20.802;2023-08-20T12:26:31;15.25;;;13.65;;
59314;SDS011;46521;50.160;20.802;2023-08-20T12:36:32;14.80;;;13.30;;
59314;SDS011;46521;50.160;20.802;2023-08-20T12:46:33;12.43;;;11.17;;
59314;SDS011;46521;50.160;20.802;2023-08-20T12:56:35;12.00;;;10.60;;
59314;SDS011;46521;50.160;20.802;2023-08-20T13:06:37;11.90;;;10.25;;
59314;SDS011;46521;50.160;20.802;2023-08-20T13:16:40;11.33;;;9.77;;
59314;SDS011;46521;50.160;20.802;2023-08-20T13:26:41;11.55;;;10.35;;
59314;SDS011;46521;50.160;20.802;2023-08-20T13:36:43;11.43;;;9.23;;
59314;SDS011;46521;50.160;20.802;2023-08-20T13:46:44;11.25;;;10.05;;
59314;SDS011;46521;50.160;20.802;2023-08-20T13:56:46;11.63;;;10.43;;
59314;SDS011;46521;50.160;20.802;2023-08-20T14:06:47;12.40;;;10.65;;
59314;SDS011;46521;50.160;20.802;2023-08-20T14:16:49;13.20;;;10.47;;
59314;SDS011;46521;50.160;20.802;2023-08-20T14:26:50;13.50;;;11.63;;
59314;SDS011;46521;50.160;20.802;2023-08-20T14:36:52;13.60;;;12.00;;
59314;SDS011;46521;50.160;20.802;2023-08-20T14:46:53;12.90;;;11.60;;
59314;SDS011;46521;50.160;20.802;2023-08-20T14:56:55;12.63;;;11.33;;
59314;SDS011;46521;50.160;20.802;2023-08-20T15:06:56;14.20;;;11.15;;
59314;SDS011;46521;50.160;20.802;2023-08-20T15:16:57;13.90;;;11.65;;
59314;SDS011;46521;50.160;20.802;2023-08-20T15:26:59;12.60;;;10.80;;
59314;SDS011;46521;50.160;20.802;2023-08-20T15:37:00;12.15;;;10.85;;
59314;SDS011;46521;50.160;20.802;2023-08-20T15:47:02;12.53;;;11.27;;
59314;SDS011;46521;50.160;20.802;2023-08-20T15:57:04;12.37;;;11.07;;
59314;SDS011;46521;50.160;20.802;2023-08-20T16:07:05;11.80;;;10.60;;
59314;SDS011;46521;50.160;20.802;2023-08-20T16:17:07;12.80;;;11.50;;
59314;SDS011;46521;50.160;20.802;2023-08-20T16:27:09;13.35;;;11.35;;
59314;SDS011;46521;50.160;20.802;2023-08-20T16:37:11;13.30;;;11.00;;
59314;SDS011;46521;50.160;20.802;2023-08-20T16:47:12;12.75;;;11.45;;
59314;SDS011;46521;50.160;20.802;2023-08-20T16:57:14;14.15;;;11.90;;
59314;SDS011;46521;50.160;20.802;2023-08-20T17:07:15;14.10;;;12.45;;
59314;SDS011;46521;50.160;20.802;2023-08-20T17:17:17;15.23;;;12.83;;
59314;SDS011;46521;50.160;20.802;2023-08-20T17:27:19;13.45;;;12.15;;
59314;SDS011;46521;50.160;20.802;2023-08-20T17:37:21;13.50;;;12.15;;
59314;SDS011;46521;50.160;20.802;2023-08-20T17:47:23;14.27;;;11.97;;
59314;SDS011;46521;50.160;20.802;2023-08-20T17:57:25;14.00;;;12.60;;
59314;SDS011;46521;50.160;20.802;2023-08-20T18:07:27;14.10;;;12.60;;
59314;SDS011;46521;50.160;20.802;2023-08-20T18:17:28;14.40;;;12.90;;
59314;SDS011;46521;50.160;20.802;2023-08-20T18:27:30;14.60;;;13.10;;
59314;SDS011;46521;50.160;20.802;2023-08-20T18:37:31;15.08;;;13.58;;
59314;SDS011;46521;50.160;20.802;2023-08-20T18:47:33;14.05;;;12.55;;
59314;SDS011;46521;50.160;20.802;2023-08-20T18:57:34;14.30;;;12.80;;
59314;SDS011;46521;50.160;20.802;2023-08-20T19:07:36;15.35;;;13.75;;
59314;SDS011;46521;50.160;20.802;2023-08-20T19:17:38;17.70;;;13.80;;
59314;SDS011;46521;50.160;20.802;2023-08-20T19:27:40;15.45;;;12.65;;
59314;SDS011;46521;50.160;20.802;2023-08-20T19:37:41;15.03;;;12.90;;
59314;SDS011;46521;50.160;20.802;2023-08-20T19:47:43;14.17;;;11.67;;
59314;SDS011;46521;50.160;20.802;2023-08-20T19:57:44;13.40;;;11.60;;
59314;SDS011;46521;50.160;20.802;2023-08-20T20:07:46;12.90;;;11.57;;
59314;SDS011;46521;50.160;20.802;2023-08-20T20:17:48;12.45;;;10.75;;
59314;SDS011;46521;50.160;20.802;2023-08-20T20:27:50;12.60;;;11.30;;
59314;SDS011;46521;50.160;20.802;2023-08-20T20:37:51;13.00;;;11.60;;
59314;SDS011;46521;50.160;20.802;2023-08-20T20:47:53;13.20;;;11.45;;
59314;SDS011;46521;50.160;20.802;2023-08-20T20:57:54;12.43;;;11.03;;
59314;SDS011;46521;50.160;20.802;2023-08-20T21:07:56;13.33;;;10.77;;
59314;SDS011;46521;50.160;20.802;2023-08-20T21:17:57;14.40;;;11.70;;
59314;SDS011;46521;50.160;20.802;2023-08-20T21:27:59;12.75;;;10.55;;
59314;SDS011;46521;50.160;20.802;2023-08-20T21:38:01;11.95;;;10.15;;
59314;SDS011;46521;50.160;20.802;2023-08-20T21:48:02;13.80;;;10.63;;
59314;SDS011;46521;50.160;20.802;2023-08-20T21:58:04;12.50;;;11.20;;
59314;SDS011;46521;50.160;20.802;2023-08-20T22:08:05;14.20;;;12.00;;
59314;SDS011;46521;50.160;20.802;2023-08-20T22:18:07;15.78;;;12.78;;
59314;SDS011;46521;50.160;20.802;2023-08-20T22:28:08;15.07;;;12.37;;
59314;SDS011;46521;50.160;20.802;2023-08-20T22:38:10;13.80;;;11.80;;
59314;SDS011;46521;50.160;20.802;2023-08-20T22:48:11;15.55;;;12.25;;
59314;SDS011;46521;50.160;20.802;2023-08-20T22:58:13;13.35;;;11.90;;
59314;SDS011;46521;50.160;20.802;2023-08-20T23:08:14;13.85;;;11.88;;
59314;SDS011;46521;50.160;20.802;2023-08-20T23:18:16;16.60;;;12.20;;
59314;SDS011;46521;50.160;20.802;2023-08-20T23:28:17;14.35;;;12.60;;
59314;SDS011;46521;50.160;20.802;2023-08-20T23:38:20;16.23;;;13.43;;
59314;SDS011;46521;50.160;20.802;2023-08-20T23:48:21;15.87;;;13.63;;
59314;SDS011;46521;50.160;20.802;2023-08-20T23:58:23;16.00;;;14.30;;
